sensor_id;sensor_type;location;lat;lon;timestamp;pressure;altitude;pressure_sealevel;temperature;humidity
61357;BME280;47227;46.752;23.576;2022-12-10T00:01:37;95113.87;;;7.98;80.38
61357;BME280;47227;46.752;23.576;2022-12-10T00:04:05;95113.36;;;8.04;80.69
61357;BME280;47227;46.752;23.576;2022-12-10T00:06:35;95113.48;;;8.15;80.80
61357;BME280;47227;46.752;23.576;2022-12-10T00:09:06;95109.57;;;8.21;79.76
61357;BME280;47227;46.752;23.576;2022-12-10T00:11:34;95103.30;;;8.26;80.00
61357;BME280;47227;46.752;23.576;2022-12-10T00:14:02;95104.77;;;8.37;80.61
61357;BME280;47227;46.752;23.576;2022-12-10T00:16:30;95097.73;;;8.48;80.00
61357;BME280;47227;46.752;23.576;2022-12-10T00:18:58;95093.14;;;8.50;79.52
61357;BME280;47227;46.752;23.576;2022-12-10T00:21:29;95093.12;;;8.63;79.18
61357;BME280;47227;46.752;23.576;2022-12-10T00:23:57;95097.14;;;8.71;78.92
61357;BME280;47227;46.752;23.576;2022-12-10T00:26:28;95096.88;;;8.71;77.80
61357;BME280;47227;46.752;23.576;2022-12-10T00:28:56;95102.84;;;8.77;78.38
61357;BME280;47227;46.752;23.576;2022-12-10T00:31:27;95106.89;;;8.84;78.64
61357;BME280;47227;46.752;23.576;2022-12-10T00:33:57;95104.70;;;8.88;77.98
61357;BME280;47227;46.752;23.576;2022-12-10T00:36:30;95105.42;;;8.91;78.62
61357;BME280;47227;46.752;23.576;2022-12-10T00:38:59;95107.45;;;8.93;78.55
61357;BME280;47227;46.752;23.576;2022-12-10T00:41:28;95104.63;;;8.95;78.24
61357;BME280;47227;46.752;23.576;2022-12-10T00:43:56;95098.55;;;8.99;78.33
61357;BME280;47227;46.752;23.576;2022-12-10T00:46:24;95097.49;;;9.05;78.07
61357;BME280;47227;46.752;23.576;2022-12-10T00:48:52;95094.66;;;9.06;78.08
61357;BME280;47227;46.752;23.576;2022-12-10T00:51:22;95095.45;;;9.05;77.34
61357;BME280;47227;46.752;23.576;2022-12-10T00:53:53;95096.52;;;8.97;76.68
61357;BME280;47227;46.752;23.576;2022-12-10T00:56:27;95091.86;;;8.96;77.15
61357;BME280;47227;46.752;23.576;2022-12-10T00:58:56;95089.70;;;9.04;77.47
61357;BME280;47227;46.752;23.576;2022-12-10T01:01:32;95088.71;;;9.15;77.71
61357;BME280;47227;46.752;23.576;2022-12-10T01:04:05;95081.35;;;9.29;77.68
61357;BME280;47227;46.752;23.576;2022-12-10T01:06:36;95080.25;;;9.42;77.39
61357;BME280;47227;46.752;23.576;2022-12-10T01:09:06;95077.46;;;9.56;77.22
61357;BME280;47227;46.752;23.576;2022-12-10T01:11:36;95077.34;;;9.68;76.87
61357;BME280;47227;46.752;23.576;2022-12-10T01:14:08;95076.27;;;9.75;76.40
61357;BME280;47227;46.752;23.576;2022-12-10T01:16:37;95073.61;;;9.81;76.55
61357;BME280;47227;46.752;23.576;2022-12-10T01:19:05;95070.60;;;9.84;76.45
61357;BME280;47227;46.752;23.576;2022-12-10T01:21:35;95071.36;;;9.87;76.30
61357;BME280;47227;46.752;23.576;2022-12-10T01:24:03;95071.48;;;9.86;75.95
61357;BME280;47227;46.752;23.576;2022-12-10T01:26:33;95066.88;;;9.86;76.32
61357;BME280;47227;46.752;23.576;2022-12-10T01:29:03;95059.00;;;9.87;76.57
61357;BME280;47227;46.752;23.576;2022-12-10T01:31:35;95056.73;;;9.90;76.31
61357;BME280;47227;46.752;23.576;2022-12-10T01:34:07;95059.80;;;9.93;76.25
61357;BME280;47227;46.752;23.576;2022-12-10T01:36:39;95055.44;;;9.96;76.28
61357;BME280;47227;46.752;23.576;2022-12-10T01:39:13;95054.67;;;9.99;76.41
61357;BME280;47227;46.752;23.576;2022-12-10T01:41:45;95051.27;;;10.02;76.25
61357;BME280;47227;46.752;23.576;2022-12-10T01:47:21;95049.23;;;10.06;76.36
61357;BME280;47227;46.752;23.576;2022-12-10T01:49:49;95049.23;;;10.07;75.75
61357;BME280;47227;46.752;23.576;2022-12-10T01:52:18;95050.41;;;10.10;75.94
61357;BME280;47227;46.752;23.576;2022-12-10T01:54:48;95047.40;;;10.14;75.90
61357;BME280;47227;46.752;23.576;2022-12-10T01:57:20;95044.70;;;10.18;75.79
61357;BME280;47227;46.752;23.576;2022-12-10T01:59:57;95044.55;;;10.22;75.93
61357;BME280;47227;46.752;23.576;2022-12-10T02:02:39;95044.75;;;10.24;76.08
61357;BME280;47227;46.752;23.576;2022-12-10T02:05:29;95045.59;;;10.23;76.69
61357;BME280;47227;46.752;23.576;2022-12-10T02:08:15;95043.88;;;10.21;76.91
61357;BME280;47227;46.752;23.576;2022-12-10T02:10:58;95043.23;;;10.18;77.21
61357;BME280;47227;46.752;23.576;2022-12-10T02:13:38;95038.48;;;10.15;77.82
61357;BME280;47227;46.752;23.576;2022-12-10T02:16:29;95030.94;;;10.14;77.97
61357;BME280;47227;46.752;23.576;2022-12-10T02:19:19;95029.06;;;10.12;78.52
61357;BME280;47227;46.752;23.576;2022-12-10T02:21:50;95024.13;;;10.13;79.05
61357;BME280;47227;46.752;23.576;2022-12-10T02:24:24;95028.88;;;10.15;79.13
61357;BME280;47227;46.752;23.576;2022-12-10T02:27:15;95030.77;;;10.17;79.21
61357;BME280;47227;46.752;23.576;2022-12-10T02:29:46;95041.14;;;10.16;79.21
61357;BME280;47227;46.752;23.576;2022-12-10T02:32:23;95037.38;;;10.15;79.60
61357;BME280;47227;46.752;23.576;2022-12-10T02:34:57;95043.00;;;10.13;79.73
61357;BME280;47227;46.752;23.576;2022-12-10T02:37:34;95043.45;;;10.08;79.61
61357;BME280;47227;46.752;23.576;2022-12-10T02:40:07;95046.62;;;10.04;79.68
61357;BME280;47227;46.752;23.576;2022-12-10T02:42:41;95052.48;;;10.00;79.68
61357;BME280;47227;46.752;23.576;2022-12-10T02:45:11;95056.80;;;9.89;81.21
61357;BME280;47227;46.752;23.576;2022-12-10T02:47:40;95053.15;;;9.76;81.11
61357;BME280;47227;46.752;23.576;2022-12-10T02:50:10;95055.98;;;9.67;80.60
61357;BME280;47227;46.752;23.576;2022-12-10T02:52:40;95055.66;;;9.58;81.67
61357;BME280;47227;46.752;23.576;2022-12-10T02:55:11;95050.83;;;9.51;82.01
61357;BME280;47227;46.752;23.576;2022-12-10T02:58:03;95051.01;;;9.49;82.07
61357;BME280;47227;46.752;23.576;2022-12-10T03:00:46;95053.56;;;9.49;81.95
61357;BME280;47227;46.752;23.576;2022-12-10T03:03:28;95058.28;;;9.49;81.92
61357;BME280;47227;46.752;23.576;2022-12-10T03:06:18;95062.15;;;9.50;81.87
61357;BME280;47227;46.752;23.576;2022-12-10T03:08:56;95065.75;;;9.53;81.57
61357;BME280;47227;46.752;23.576;2022-12-10T03:11:27;95063.05;;;9.58;82.49
61357;BME280;47227;46.752;23.576;2022-12-10T03:14:03;95066.11;;;9.62;82.49
61357;BME280;47227;46.752;23.576;2022-12-10T03:16:36;95064.98;;;9.67;82.65
61357;BME280;47227;46.752;23.576;2022-12-10T03:19:11;95062.17;;;9.73;82.53
61357;BME280;47227;46.752;23.576;2022-12-10T03:21:44;95054.13;;;9.79;82.87
61357;BME280;47227;46.752;23.576;2022-12-10T03:24:13;95054.04;;;9.85;83.08
61357;BME280;47227;46.752;23.576;2022-12-10T03:26:47;95050.09;;;9.88;82.76
61357;BME280;47227;46.752;23.576;2022-12-10T03:29:26;95048.33;;;9.93;82.97
61357;BME280;47227;46.752;23.576;2022-12-10T03:31:58;95045.98;;;9.98;83.10
61357;BME280;47227;46.752;23.576;2022-12-10T03:34:26;95038.39;;;9.99;83.01
61357;BME280;47227;46.752;23.576;2022-12-10T03:36:55;95035.24;;;10.01;82.84
61357;BME280;47227;46.752;23.576;2022-12-10T03:39:25;95041.63;;;10.00;82.80
61357;BME280;47227;46.752;23.576;2022-12-10T03:41:54;95045.00;;;9.97;83.03
61357;BME280;47227;46.752;23.576;2022-12-10T03:44:31;95041.20;;;9.94;83.13
61357;BME280;47227;46.752;23.576;2022-12-10T03:47:00;95036.15;;;9.90;82.84
61357;BME280;47227;46.752;23.576;2022-12-10T03:49:29;95029.05;;;9.87;82.96
61357;BME280;47227;46.752;23.576;2022-12-10T03:51:57;95022.73;;;9.84;83.02
61357;BME280;47227;46.752;23.576;2022-12-10T03:54:25;95016.05;;;9.82;83.57
61357;BME280;47227;46.752;23.576;2022-12-10T03:56:53;95016.90;;;9.78;83.42
61357;BME280;47227;46.752;23.576;2022-12-10T03:59:21;95018.86;;;9.73;83.67
61357;BME280;47227;46.752;23.576;2022-12-10T04:01:49;95015.27;;;9.70;83.55
61357;BME280;47227;46.752;23.576;2022-12-10T04:04:17;95018.48;;;9.67;83.73
61357;BME280;47227;46.752;23.576;2022-12-10T04:06:45;95020.60;;;9.64;83.67
61357;BME280;47227;46.752;23.576;2022-12-10T04:09:14;95018.11;;;9.61;84.25
61357;BME280;47227;46.752;23.576;2022-12-10T04:11:43;95015.64;;;9.56;84.14
61357;BME280;47227;46.752;23.576;2022-12-10T04:14:13;95013.23;;;9.54;84.43
61357;BME280;47227;46.752;23.576;2022-12-10T04:16:56;95007.44;;;9.52;85.74
61357;BME280;47227;46.752;23.576;2022-12-10T04:19:24;95008.51;;;9.48;87.61
61357;BME280;47227;46.752;23.576;2022-12-10T04:21:53;95011.34;;;9.45;88.00
61357;BME280;47227;46.752;23.576;2022-12-10T04:24:37;95009.82;;;9.46;87.54
61357;BME280;47227;46.752;23.576;2022-12-10T04:27:30;95016.25;;;9.47;86.76
61357;BME280;47227;46.752;23.576;2022-12-10T04:29:59;95017.17;;;9.50;86.56
61357;BME280;47227;46.752;23.576;2022-12-10T04:32:28;95019.76;;;9.57;86.29
61357;BME280;47227;46.752;23.576;2022-12-10T04:34:56;95019.52;;;9.61;86.26
61357;BME280;47227;46.752;23.576;2022-12-10T04:37:24;95027.94;;;9.64;86.05
61357;BME280;47227;46.752;23.576;2022-12-10T04:39:53;95032.11;;;9.68;85.93
61357;BME280;47227;46.752;23.576;2022-12-10T04:42:22;95033.11;;;9.72;85.92
61357;BME280;47227;46.752;23.576;2022-12-10T04:44:50;95033.52;;;9.76;85.68
61357;BME280;47227;46.752;23.576;2022-12-10T04:47:18;95032.01;;;9.76;85.63
61357;BME280;47227;46.752;23.576;2022-12-10T04:49:46;95035.73;;;9.72;85.52
61357;BME280;47227;46.752;23.576;2022-12-10T04:52:15;95032.52;;;9.70;85.49
61357;BME280;47227;46.752;23.576;2022-12-10T04:54:43;95031.09;;;9.68;85.45
61357;BME280;47227;46.752;23.576;2022-12-10T04:57:13;95022.70;;;9.66;85.18
61357;BME280;47227;46.752;23.576;2022-12-10T04:59:41;95024.13;;;9.63;85.30
61357;BME280;47227;46.752;23.576;2022-12-10T05:02:10;95025.20;;;9.59;84.97
61357;BME280;47227;46.752;23.576;2022-12-10T05:04:38;95021.71;;;9.53;84.69
61357;BME280;47227;46.752;23.576;2022-12-10T05:07:06;95020.61;;;9.47;85.02
61357;BME280;47227;46.752;23.576;2022-12-10T05:09:34;95018.08;;;9.33;85.36
61357;BME280;47227;46.752;23.576;2022-12-10T05:12:03;95019.52;;;9.22;85.30
61357;BME280;47227;46.752;23.576;2022-12-10T05:14:31;95021.41;;;9.08;87.20
61357;BME280;47227;46.752;23.576;2022-12-10T05:16:59;95020.17;;;8.92;87.33
61357;BME280;47227;46.752;23.576;2022-12-10T05:19:27;95026.69;;;8.80;87.79
61357;BME280;47227;46.752;23.576;2022-12-10T05:21:55;95026.48;;;8.77;86.95
61357;BME280;47227;46.752;23.576;2022-12-10T05:24:40;95027.01;;;8.77;86.99
61357;BME280;47227;46.752;23.576;2022-12-10T05:27:08;95031.27;;;8.74;87.64
61357;BME280;47227;46.752;23.576;2022-12-10T05:29:36;95025.55;;;8.75;87.47
61357;BME280;47227;46.752;23.576;2022-12-10T05:32:04;95014.05;;;8.77;86.81
61357;BME280;47227;46.752;23.576;2022-12-10T05:34:32;95012.89;;;8.82;87.20
61357;BME280;47227;46.752;23.576;2022-12-10T05:36:59;95014.79;;;8.90;87.03
61357;BME280;47227;46.752;23.576;2022-12-10T05:39:28;95017.42;;;8.98;87.14
61357;BME280;47227;46.752;23.576;2022-12-10T05:41:56;95022.66;;;9.08;87.30
61357;BME280;47227;46.752;23.576;2022-12-10T05:44:24;95028.95;;;9.19;87.45
61357;BME280;47227;46.752;23.576;2022-12-10T05:46:52;95028.67;;;9.23;87.17
61357;BME280;47227;46.752;23.576;2022-12-10T05:49:20;95030.32;;;9.17;86.97
61357;BME280;47227;46.752;23.576;2022-12-10T05:51:48;95030.23;;;9.13;86.96
61357;BME280;47227;46.752;23.576;2022-12-10T05:54:15;95021.73;;;9.11;86.79
61357;BME280;47227;46.752;23.576;2022-12-10T05:56:43;95022.61;;;9.11;86.98
61357;BME280;47227;46.752;23.576;2022-12-10T05:59:12;95021.72;;;9.10;86.85
61357;BME280;47227;46.752;23.576;2022-12-10T06:01:43;95015.73;;;9.14;87.10
61357;BME280;47227;46.752;23.576;2022-12-10T06:04:12;95010.08;;;9.17;86.95
61357;BME280;47227;46.752;23.576;2022-12-10T06:06:41;95006.84;;;9.15;87.06
61357;BME280;47227;46.752;23.576;2022-12-10T06:09:11;95005.66;;;9.11;86.72
61357;BME280;47227;46.752;23.576;2022-12-10T06:11:40;95006.22;;;9.03;86.48
61357;BME280;47227;46.752;23.576;2022-12-10T06:14:09;95007.59;;;9.00;86.64
61357;BME280;47227;46.752;23.576;2022-12-10T06:16:38;95020.11;;;8.94;87.90
61357;BME280;47227;46.752;23.576;2022-12-10T06:19:06;95019.99;;;8.81;87.67
61357;BME280;47227;46.752;23.576;2022-12-10T06:21:34;95019.29;;;8.75;87.31
61357;BME280;47227;46.752;23.576;2022-12-10T06:24:03;95029.91;;;8.70;87.50
61357;BME280;47227;46.752;23.576;2022-12-10T06:26:31;95027.66;;;8.69;87.53
61357;BME280;47227;46.752;23.576;2022-12-10T06:28:59;95028.66;;;8.66;87.74
61357;BME280;47227;46.752;23.576;2022-12-10T06:31:27;95028.73;;;8.62;87.58
61357;BME280;47227;46.752;23.576;2022-12-10T06:33:56;95028.04;;;8.63;88.01
61357;BME280;47227;46.752;23.576;2022-12-10T06:36:23;95024.60;;;8.61;89.81
61357;BME280;47227;46.752;23.576;2022-12-10T06:38:51;95031.70;;;8.57;89.78
61357;BME280;47227;46.752;23.576;2022-12-10T06:41:19;95030.24;;;8.58;88.86
61357;BME280;47227;46.752;23.576;2022-12-10T06:43:48;95029.70;;;8.63;88.47
61357;BME280;47227;46.752;23.576;2022-12-10T06:46:19;95025.98;;;8.71;88.93
61357;BME280;47227;46.752;23.576;2022-12-10T06:48:47;95023.17;;;8.83;88.83
61357;BME280;47227;46.752;23.576;2022-12-10T06:51:16;95028.31;;;8.95;88.78
61357;BME280;47227;46.752;23.576;2022-12-10T06:53:45;95039.40;;;8.99;88.46
61357;BME280;47227;46.752;23.576;2022-12-10T06:56:16;95048.09;;;8.76;87.36
61357;BME280;47227;46.752;23.576;2022-12-10T06:58:45;95050.23;;;8.71;87.65
61357;BME280;47227;46.752;23.576;2022-12-10T07:01:23;95046.22;;;8.67;88.42
61357;BME280;47227;46.752;23.576;2022-12-10T07:03:56;95047.36;;;8.72;88.21
61357;BME280;47227;46.752;23.576;2022-12-10T07:06:25;95052.11;;;8.77;87.92
61357;BME280;47227;46.752;23.576;2022-12-10T07:08:58;95057.17;;;8.84;88.14
61357;BME280;47227;46.752;23.576;2022-12-10T07:11:25;95055.95;;;8.87;88.17
61357;BME280;47227;46.752;23.576;2022-12-10T07:13:53;95056.44;;;8.86;87.89
61357;BME280;47227;46.752;23.576;2022-12-10T07:16:23;95060.75;;;8.93;88.21
61357;BME280;47227;46.752;23.576;2022-12-10T07:18:54;95058.52;;;9.03;88.35
61357;BME280;47227;46.752;23.576;2022-12-10T07:21:25;95060.58;;;9.14;88.26
61357;BME280;47227;46.752;23.576;2022-12-10T07:23:55;95054.63;;;9.11;87.39
61357;BME280;47227;46.752;23.576;2022-12-10T07:26:28;95056.47;;;9.06;87.29
61357;BME280;47227;46.752;23.576;2022-12-10T07:28:58;95053.88;;;8.99;88.00
61357;BME280;47227;46.752;23.576;2022-12-10T07:31:26;95052.15;;;8.97;87.53
61357;BME280;47227;46.752;23.576;2022-12-10T07:33:57;95048.36;;;8.96;87.26
61357;BME280;47227;46.752;23.576;2022-12-10T07:36:26;95046.67;;;8.97;87.64
61357;BME280;47227;46.752;23.576;2022-12-10T07:38:54;95050.00;;;9.00;87.54
61357;BME280;47227;46.752;23.576;2022-12-10T07:41:23;95055.02;;;9.02;88.66
61357;BME280;47227;46.752;23.576;2022-12-10T07:43:52;95057.23;;;9.00;88.02
61357;BME280;47227;46.752;23.576;2022-12-10T07:46:23;95052.68;;;8.98;88.03
61357;BME280;47227;46.752;23.576;2022-12-10T07:48:52;95055.66;;;8.98;87.81
61357;BME280;47227;46.752;23.576;2022-12-10T07:51:21;95058.60;;;8.94;87.71
61357;BME280;47227;46.752;23.576;2022-12-10T07:53:52;95054.41;;;9.00;87.69
61357;BME280;47227;46.752;23.576;2022-12-10T07:56:22;95064.41;;;9.11;87.98
61357;BME280;47227;46.752;23.576;2022-12-10T07:58:51;95063.45;;;9.15;87.73
61357;BME280;47227;46.752;23.576;2022-12-10T08:01:23;95072.01;;;9.21;87.93
61357;BME280;47227;46.752;23.576;2022-12-10T08:03:54;95072.30;;;9.30;87.89
61357;BME280;47227;46.752;23.576;2022-12-10T08:06:26;95073.05;;;9.35;87.41
61357;BME280;47227;46.752;23.576;2022-12-10T08:08:55;95065.64;;;9.42;87.65
61357;BME280;47227;46.752;23.576;2022-12-10T08:11:23;95062.20;;;9.49;87.56
61357;BME280;47227;46.752;23.576;2022-12-10T08:13:51;95060.55;;;9.56;87.60
61357;BME280;47227;46.752;23.576;2022-12-10T08:16:27;95061.14;;;9.63;87.79
61357;BME280;47227;46.752;23.576;2022-12-10T08:18:57;95053.97;;;9.71;87.11
61357;BME280;47227;46.752;23.576;2022-12-10T08:21:28;95046.14;;;9.78;87.34
61357;BME280;47227;46.752;23.576;2022-12-10T08:23:57;95047.00;;;9.80;87.37
61357;BME280;47227;46.752;23.576;2022-12-10T08:26:31;95054.75;;;9.80;87.26
61357;BME280;47227;46.752;23.576;2022-12-10T08:29:00;95064.31;;;9.66;87.82
61357;BME280;47227;46.752;23.576;2022-12-10T08:31:29;95065.36;;;9.65;86.87
61357;BME280;47227;46.752;23.576;2022-12-10T08:34:13;95065.13;;;9.60;86.95
61357;BME280;47227;46.752;23.576;2022-12-10T08:36:42;95069.69;;;9.60;87.10
61357;BME280;47227;46.752;23.576;2022-12-10T08:39:11;95066.89;;;9.64;86.94
61357;BME280;47227;46.752;23.576;2022-12-10T08:41:44;95068.42;;;9.70;87.66
61357;BME280;47227;46.752;23.576;2022-12-10T08:44:13;95065.86;;;9.79;87.40
61357;BME280;47227;46.752;23.576;2022-12-10T08:46:41;95059.09;;;9.89;87.22
61357;BME280;47227;46.752;23.576;2022-12-10T08:49:09;95059.98;;;9.99;87.57
61357;BME280;47227;46.752;23.576;2022-12-10T08:51:37;95055.98;;;10.08;87.35
61357;BME280;47227;46.752;23.576;2022-12-10T08:54:05;95056.27;;;10.17;87.13
61357;BME280;47227;46.752;23.576;2022-12-10T08:56:33;95053.71;;;10.23;86.99
61357;BME280;47227;46.752;23.576;2022-12-10T08:59:01;95055.11;;;10.26;86.85
61357;BME280;47227;46.752;23.576;2022-12-10T09:01:29;95053.81;;;10.18;85.82
61357;BME280;47227;46.752;23.576;2022-12-10T09:03:58;95043.16;;;9.97;85.44
61357;BME280;47227;46.752;23.576;2022-12-10T09:06:26;95036.34;;;9.99;85.82
61357;BME280;47227;46.752;23.576;2022-12-10T09:08:54;95038.84;;;10.07;86.05
61357;BME280;47227;46.752;23.576;2022-12-10T09:11:26;95038.77;;;10.19;86.54
61357;BME280;47227;46.752;23.576;2022-12-10T09:13:55;95034.59;;;10.31;86.37
61357;BME280;47227;46.752;23.576;2022-12-10T09:16:32;95030.17;;;10.40;86.08
61357;BME280;47227;46.752;23.576;2022-12-10T09:19:02;95027.27;;;10.49;86.23
61357;BME280;47227;46.752;23.576;2022-12-10T09:21:31;95020.21;;;10.61;86.29
61357;BME280;47227;46.752;23.576;2022-12-10T09:23:59;95016.79;;;10.73;85.84
61357;BME280;47227;46.752;23.576;2022-12-10T09:26:28;95016.45;;;10.81;84.88
61357;BME280;47227;46.752;23.576;2022-12-10T09:28:56;95015.00;;;10.89;85.03
61357;BME280;47227;46.752;23.576;2022-12-10T09:31:26;95015.10;;;10.99;85.29
61357;BME280;47227;46.752;23.576;2022-12-10T09:33:57;95012.61;;;11.10;85.50
61357;BME280;47227;46.752;23.576;2022-12-10T09:36:25;95008.85;;;11.22;85.35
61357;BME280;47227;46.752;23.576;2022-12-10T09:39:00;95010.51;;;11.32;85.16
61357;BME280;47227;46.752;23.576;2022-12-10T09:47:17;95004.11;;;11.30;82.54
61357;BME280;47227;46.752;23.576;2022-12-10T09:50:02;94999.63;;;11.33;82.17
61357;BME280;47227;46.752;23.576;2022-12-10T09:52:42;95000.38;;;11.39;82.36
61357;BME280;47227;46.752;23.576;2022-12-10T09:55:18;95000.86;;;11.45;82.24
61357;BME280;47227;46.752;23.576;2022-12-10T09:57:49;95005.52;;;11.55;82.98
61357;BME280;47227;46.752;23.576;2022-12-10T10:00:23;95004.01;;;11.66;83.31
61357;BME280;47227;46.752;23.576;2022-12-10T10:02:56;94997.91;;;11.76;82.75
61357;BME280;47227;46.752;23.576;2022-12-10T10:05:31;94993.27;;;11.84;82.87
61357;BME280;47227;46.752;23.576;2022-12-10T10:08:02;94997.34;;;11.88;82.60
61357;BME280;47227;46.752;23.576;2022-12-10T10:10:33;95005.12;;;11.92;82.28
61357;BME280;47227;46.752;23.576;2022-12-10T10:13:27;95009.27;;;11.95;82.44
61357;BME280;47227;46.752;23.576;2022-12-10T10:16:07;95002.33;;;11.99;82.00
61357;BME280;47227;46.752;23.576;2022-12-10T10:18:43;94988.95;;;12.01;81.50
61357;BME280;47227;46.752;23.576;2022-12-10T10:21:21;94983.91;;;12.03;81.77
61357;BME280;47227;46.752;23.576;2022-12-10T10:23:50;94976.88;;;12.06;81.45
61357;BME280;47227;46.752;23.576;2022-12-10T10:26:18;94966.69;;;12.18;82.19
61357;BME280;47227;46.752;23.576;2022-12-10T10:28:48;94963.88;;;12.43;82.44
61357;BME280;47227;46.752;23.576;2022-12-10T10:31:22;94957.90;;;12.74;81.68
61357;BME280;47227;46.752;23.576;2022-12-10T10:33:59;94960.87;;;13.10;80.84
61357;BME280;47227;46.752;23.576;2022-12-10T10:36:31;94973.21;;;13.45;78.56
61357;BME280;47227;46.752;23.576;2022-12-10T10:39:22;94975.23;;;13.66;78.88
61357;BME280;47227;46.752;23.576;2022-12-10T10:41:54;94978.77;;;13.78;77.21
61357;BME280;47227;46.752;23.576;2022-12-10T10:44:28;94973.80;;;13.57;75.49
61357;BME280;47227;46.752;23.576;2022-12-10T10:47:01;94968.73;;;13.43;75.30
61357;BME280;47227;46.752;23.576;2022-12-10T10:49:32;94963.69;;;13.37;76.10
61357;BME280;47227;46.752;23.576;2022-12-10T10:52:12;94957.77;;;13.55;77.11
61357;BME280;47227;46.752;23.576;2022-12-10T10:54:44;94951.70;;;13.89;76.95
61357;BME280;47227;46.752;23.576;2022-12-10T10:57:24;94947.64;;;14.27;75.50
61357;BME280;47227;46.752;23.576;2022-12-10T10:59:55;94951.11;;;14.63;73.64
61357;BME280;47227;46.752;23.576;2022-12-10T11:02:30;94948.88;;;14.83;72.53
61357;BME280;47227;46.752;23.576;2022-12-10T11:05:08;94948.02;;;14.76;71.38
61357;BME280;47227;46.752;23.576;2022-12-10T11:07:43;94952.64;;;14.67;71.42
61357;BME280;47227;46.752;23.576;2022-12-10T11:10:18;94950.79;;;14.69;71.48
61357;BME280;47227;46.752;23.576;2022-12-10T11:12:57;94946.41;;;14.59;71.44
61357;BME280;47227;46.752;23.576;2022-12-10T11:15:32;94942.70;;;14.58;71.83
61357;BME280;47227;46.752;23.576;2022-12-10T11:18:10;94939.39;;;14.58;71.46
61357;BME280;47227;46.752;23.576;2022-12-10T11:21:02;94934.70;;;14.57;72.26
61357;BME280;47227;46.752;23.576;2022-12-10T11:23:37;94933.55;;;14.47;71.68
61357;BME280;47227;46.752;23.576;2022-12-10T11:26:28;94938.16;;;14.51;71.74
61357;BME280;47227;46.752;23.576;2022-12-10T11:29:21;94937.35;;;14.68;72.44
61357;BME280;47227;46.752;23.576;2022-12-10T11:32:35;94933.23;;;14.84;72.35
61357;BME280;47227;46.752;23.576;2022-12-10T11:35:19;94938.13;;;14.94;70.59
61357;BME280;47227;46.752;23.576;2022-12-10T11:38:09;94939.09;;;14.83;68.31
61357;BME280;47227;46.752;23.576;2022-12-10T11:40:46;94933.12;;;14.78;68.92
61357;BME280;47227;46.752;23.576;2022-12-10T11:43:32;94926.11;;;14.60;69.55
61357;BME280;47227;46.752;23.576;2022-12-10T11:46:21;94924.20;;;14.61;70.57
61357;BME280;47227;46.752;23.576;2022-12-10T11:49:03;94925.53;;;14.64;70.61
61357;BME280;47227;46.752;23.576;2022-12-10T11:51:46;94924.96;;;14.54;70.78
61357;BME280;47227;46.752;23.576;2022-12-10T11:54:36;94914.38;;;14.34;71.25
61357;BME280;47227;46.752;23.576;2022-12-10T11:57:30;94910.09;;;14.25;71.56
61357;BME280;47227;46.752;23.576;2022-12-10T12:00:19;94908.65;;;14.17;72.09
61357;BME280;47227;46.752;23.576;2022-12-10T12:03:15;94911.34;;;14.11;72.43
61357;BME280;47227;46.752;23.576;2022-12-10T12:06:09;94900.35;;;13.97;73.19
61357;BME280;47227;46.752;23.576;2022-12-10T12:09:01;94893.98;;;13.77;74.16
61357;BME280;47227;46.752;23.576;2022-12-10T12:14:48;94899.96;;;13.49;74.97
61357;BME280;47227;46.752;23.576;2022-12-10T12:17:24;94900.09;;;13.50;74.99
61357;BME280;47227;46.752;23.576;2022-12-10T12:19:57;94891.37;;;13.43;75.24
61357;BME280;47227;46.752;23.576;2022-12-10T12:22:31;94886.55;;;13.37;75.33
61357;BME280;47227;46.752;23.576;2022-12-10T12:25:17;94889.58;;;13.47;75.67
61357;BME280;47227;46.752;23.576;2022-12-10T12:27:52;94883.73;;;13.59;75.55
61357;BME280;47227;46.752;23.576;2022-12-10T12:30:23;94881.14;;;13.61;75.50
61357;BME280;47227;46.752;23.576;2022-12-10T12:32:59;94880.67;;;13.63;75.51
61357;BME280;47227;46.752;23.576;2022-12-10T12:35:42;94883.05;;;13.65;75.51
61357;BME280;47227;46.752;23.576;2022-12-10T12:38:30;94888.31;;;13.65;75.14
61357;BME280;47227;46.752;23.576;2022-12-10T12:43:55;94897.73;;;13.45;75.62
61357;BME280;47227;46.752;23.576;2022-12-10T12:46:31;94896.84;;;13.47;75.95
61357;BME280;47227;46.752;23.576;2022-12-10T12:49:10;94889.44;;;13.49;75.80
61357;BME280;47227;46.752;23.576;2022-12-10T12:51:48;94880.39;;;13.36;75.77
61357;BME280;47227;46.752;23.576;2022-12-10T12:54:19;94877.46;;;13.17;76.31
61357;BME280;47227;46.752;23.576;2022-12-10T12:57:03;94874.74;;;13.17;76.66
61357;BME280;47227;46.752;23.576;2022-12-10T12:59:49;94878.38;;;13.17;76.78
61357;BME280;47227;46.752;23.576;2022-12-10T13:05:21;94875.73;;;13.13;77.12
61357;BME280;47227;46.752;23.576;2022-12-10T13:10:53;94879.71;;;13.04;77.62
61357;BME280;47227;46.752;23.576;2022-12-10T13:13:32;94878.81;;;13.02;78.32
61357;BME280;47227;46.752;23.576;2022-12-10T13:18:40;94882.83;;;12.93;78.49
61357;BME280;47227;46.752;23.576;2022-12-10T13:21:26;94881.55;;;12.92;78.82
61357;BME280;47227;46.752;23.576;2022-12-10T13:24:07;94875.20;;;12.98;78.64
61357;BME280;47227;46.752;23.576;2022-12-10T13:26:36;94870.70;;;13.09;78.70
61357;BME280;47227;46.752;23.576;2022-12-10T13:29:22;94868.21;;;13.14;78.66
61357;BME280;47227;46.752;23.576;2022-12-10T13:32:01;94867.70;;;13.22;78.28
61357;BME280;47227;46.752;23.576;2022-12-10T13:34:34;94858.61;;;13.67;76.99
61357;BME280;47227;46.752;23.576;2022-12-10T13:37:15;94857.05;;;13.95;76.03
61357;BME280;47227;46.752;23.576;2022-12-10T13:39:52;94855.29;;;14.01;76.14
61357;BME280;47227;46.752;23.576;2022-12-10T13:42:31;94851.18;;;13.95;75.87
61357;BME280;47227;46.752;23.576;2022-12-10T13:45:27;94847.05;;;13.85;75.80
61357;BME280;47227;46.752;23.576;2022-12-10T13:48:31;94840.88;;;13.68;75.90
61357;BME280;47227;46.752;23.576;2022-12-10T13:51:15;94842.00;;;13.39;76.14